createdAt,value
2018-03-01T00:01:59.530Z,37.30
2018-03-01T00:04:29.244Z,31.15
2018-03-01T00:06:58.981Z,28.33
2018-03-01T00:09:28.714Z,35.13
2018-03-01T00:11:58.532Z,33.33
2018-03-01T00:14:28.242Z,37.53
2018-03-01T00:16:58.030Z,39.05
2018-03-01T00:19:27.749Z,33.22
2018-03-01T00:21:57.474Z,36.03
2018-03-01T00:24:27.188Z,41.90
2018-03-01T00:26:57.010Z,39.10
2018-03-01T00:29:26.770Z,37.35
2018-03-01T00:31:56.510Z,36.65
2018-03-01T00:34:26.221Z,38.17
2018-03-01T00:36:55.947Z,31.33
2018-03-01T00:39:25.662Z,32.03
2018-03-01T00:41:55.392Z,33.67
2018-03-01T00:44:25.126Z,36.42
2018-03-01T00:46:54.875Z,36.20
2018-03-01T00:49:24.793Z,35.75
2018-03-01T00:51:54.584Z,32.63
2018-03-01T00:54:24.297Z,24.52
2018-03-01T00:56:54.017Z,42.20
2018-03-01T00:59:23.789Z,34.15
2018-03-01T01:01:53.506Z,31.10
2018-03-01T01:04:23.273Z,30.05
2018-03-01T01:06:52.989Z,36.53
2018-03-01T01:09:22.742Z,34.85
2018-03-01T01:11:52.538Z,34.42
2018-03-01T01:14:22.273Z,31.45
2018-03-01T01:16:52.055Z,37.85
2018-03-01T01:19:21.918Z,31.75
2018-03-01T01:21:51.641Z,32.85
2018-03-01T01:24:21.411Z,37.50
2018-03-01T01:26:51.298Z,34.88
2018-03-01T01:29:21.025Z,34.63
2018-03-01T01:31:50.769Z,37.78
2018-03-01T01:34:20.526Z,35.85
2018-03-01T01:36:50.250Z,39.85
2018-03-01T01:39:19.986Z,36.13
2018-03-01T01:41:49.830Z,40.85
2018-03-01T01:44:19.565Z,38.25
2018-03-01T01:46:49.306Z,35.38
2018-03-01T01:49:19.023Z,35.15
2018-03-01T01:51:48.770Z,42.38
2018-03-01T01:54:18.505Z,34.55
2018-03-01T01:56:48.429Z,36.10
2018-03-01T01:59:18.134Z,38.30
2018-03-01T02:01:47.863Z,36.33
2018-03-01T02:04:17.651Z,39.97
2018-03-01T02:06:47.383Z,34.00
2018-03-01T02:09:17.147Z,33.53
2018-03-01T02:11:46.873Z,36.15
2018-03-01T02:14:16.597Z,36.13
2018-03-01T02:16:46.341Z,35.85
2018-03-01T02:19:16.094Z,34.25
2018-03-01T02:21:45.882Z,41.35
2018-03-01T02:24:15.616Z,35.22
2018-03-01T02:26:45.602Z,29.08
2018-03-01T02:29:15.326Z,40.10
2018-03-01T02:31:45.057Z,36.67
2018-03-01T02:34:14.865Z,31.42
2018-03-01T02:36:44.802Z,36.20
2018-03-01T02:39:14.529Z,36.28
2018-03-01T02:41:44.294Z,44.60
2018-03-01T02:44:14.197Z,31.35
2018-03-01T02:46:43.938Z,32.55
2018-03-01T02:49:13.654Z,36.38
2018-03-01T02:51:43.371Z,32.20
2018-03-01T02:54:13.095Z,30.98
2018-03-01T02:56:42.817Z,32.53
2018-03-01T02:59:12.666Z,33.17
2018-03-01T03:01:42.404Z,37.10
2018-03-01T03:04:12.134Z,34.38
2018-03-01T03:06:41.877Z,37.92
2018-03-01T03:09:11.690Z,36.33
2018-03-01T03:11:41.402Z,33.47
2018-03-01T03:14:11.138Z,31.15
2018-03-01T03:16:40.866Z,29.65
2018-03-01T03:19:10.646Z,41.00
2018-03-01T03:21:40.438Z,28.92
2018-03-01T03:24:10.171Z,32.00
2018-03-01T03:26:39.918Z,33.10
2018-03-01T03:29:09.637Z,32.38
2018-03-01T03:31:38.399Z,33.05
2018-03-01T03:34:08.196Z,35.05
2018-03-01T03:36:37.930Z,35.55
2018-03-01T03:39:07.533Z,35.03
2018-03-01T03:41:37.246Z,47.15
2018-03-01T03:44:06.981Z,38.28
2018-03-01T03:46:36.690Z,31.70
2018-03-01T03:49:06.464Z,34.28
2018-03-01T03:51:36.213Z,33.05
2018-03-01T03:54:06.005Z,36.55
2018-03-01T03:56:35.793Z,34.10
2018-03-01T03:59:05.501Z,26.33
2018-03-01T04:01:35.230Z,34.42
2018-03-01T04:04:04.971Z,33.97
2018-03-01T04:06:34.706Z,31.65
2018-03-01T04:09:04.074Z,39.30
2018-03-01T04:11:33.868Z,31.98
2018-03-01T04:14:03.602Z,33.38
2018-03-01T04:16:33.321Z,34.20
2018-03-01T04:19:03.081Z,32.33
2018-03-01T04:21:32.811Z,37.35
2018-03-01T04:24:02.551Z,34.55
2018-03-01T04:26:32.275Z,41.22
2018-03-01T04:29:02.006Z,40.78
2018-03-01T04:31:31.878Z,41.88
2018-03-01T04:34:01.685Z,39.78
2018-03-01T04:36:31.392Z,34.38
2018-03-01T04:39:01.119Z,38.72
2018-03-01T04:41:30.988Z,36.67
2018-03-01T04:44:00.722Z,33.05
2018-03-01T04:46:30.438Z,38.95
2018-03-01T04:49:00.158Z,31.70
2018-03-01T04:51:29.874Z,40.35
2018-03-01T04:53:59.597Z,31.15
2018-03-01T04:56:29.333Z,33.70
2018-03-01T04:58:59.057Z,36.70
2018-03-01T05:01:28.797Z,32.38
2018-03-01T05:03:58.532Z,38.95
2018-03-01T05:06:28.265Z,35.13
2018-03-01T05:08:57.985Z,38.67
2018-03-01T05:11:27.523Z,40.83
2018-03-01T05:13:57.259Z,38.15
2018-03-01T05:16:26.995Z,40.58
2018-03-01T05:18:56.789Z,30.02
2018-03-01T05:21:26.511Z,38.97
2018-03-01T05:23:56.224Z,37.65
2018-03-01T05:26:26.158Z,40.35
2018-03-01T05:28:55.870Z,32.58
2018-03-01T05:31:25.591Z,42.20
2018-03-01T05:33:55.330Z,33.85
2018-03-01T05:36:25.046Z,34.88
2018-03-01T05:38:54.775Z,35.40
2018-03-01T05:41:24.325Z,34.30
2018-03-01T05:43:54.077Z,37.63
2018-03-01T05:46:23.793Z,35.20
2018-03-01T05:48:53.538Z,42.70
2018-03-01T05:51:23.362Z,33.30
2018-03-01T05:53:53.094Z,33.83
2018-03-01T05:56:22.806Z,47.72
2018-03-01T05:58:52.526Z,35.22
2018-03-01T06:01:22.317Z,37.95
2018-03-01T06:03:52.207Z,39.53
2018-03-01T06:06:21.922Z,36.53
2018-03-01T06:08:51.650Z,37.55
2018-03-01T06:11:21.366Z,36.33
2018-03-01T06:13:51.102Z,38.30
2018-03-01T06:16:21.050Z,41.85
2018-03-01T06:18:50.774Z,42.15
2018-03-01T06:21:20.501Z,32.55
2018-03-01T06:23:50.209Z,36.35
2018-03-01T06:26:20.146Z,34.03
2018-03-01T06:28:49.858Z,31.50
2018-03-01T06:31:19.670Z,43.38
2018-03-01T06:33:49.422Z,33.50
2018-03-01T06:36:19.149Z,32.20
2018-03-01T06:38:48.887Z,32.47
2018-03-01T06:41:18.594Z,43.28
2018-03-01T06:43:48.326Z,35.22
2018-03-01T06:46:18.039Z,32.88
2018-03-01T06:48:47.761Z,34.00
2018-03-01T06:51:17.174Z,36.85
2018-03-01T06:53:46.995Z,35.33
2018-03-01T06:56:16.760Z,41.88
2018-03-01T06:58:46.498Z,39.75
2018-03-01T07:01:16.267Z,36.03
2018-03-01T07:03:45.985Z,45.00
2018-03-01T07:06:15.733Z,34.35
2018-03-01T07:08:45.454Z,45.28
2018-03-01T07:11:15.166Z,40.85
2018-03-01T07:13:45.101Z,37.58
2018-03-01T07:16:14.821Z,35.25
2018-03-01T07:18:44.563Z,31.50
2018-03-01T07:21:14.275Z,33.85
2018-03-01T07:23:44.010Z,32.60
2018-03-01T07:26:13.726Z,33.53
2018-03-01T07:28:43.442Z,32.45
2018-03-01T07:31:13.027Z,34.47
2018-03-01T07:33:42.790Z,45.95
2018-03-01T07:36:12.625Z,36.28
2018-03-01T07:38:42.290Z,41.50
2018-03-01T07:41:12.073Z,40.35
2018-03-01T07:43:41.800Z,39.25
2018-03-01T07:46:11.599Z,32.88
2018-03-01T07:48:41.310Z,39.60
2018-03-01T07:51:11.330Z,41.33
2018-03-01T07:53:41.042Z,44.40
2018-03-01T07:56:10.884Z,37.13
2018-03-01T07:58:40.609Z,33.20
2018-03-01T08:01:10.328Z,39.75
2018-03-01T08:03:40.082Z,37.70
2018-03-01T08:06:09.796Z,41.40
2018-03-01T08:08:39.550Z,35.22
2018-03-01T08:11:09.274Z,37.90
2018-03-01T08:13:39.126Z,35.58
2018-03-01T08:16:08.873Z,35.20
2018-03-01T08:18:38.602Z,34.55
2018-03-01T08:21:08.326Z,35.17
2018-03-01T08:23:38.057Z,33.85
2018-03-01T08:26:07.912Z,36.30
2018-03-01T08:28:37.651Z,32.03
2018-03-01T08:31:07.632Z,34.15
2018-03-01T08:33:37.379Z,38.58
2018-03-01T08:36:07.097Z,38.60
2018-03-01T08:38:36.823Z,41.08
2018-03-01T08:41:06.551Z,33.88
2018-03-01T08:43:36.278Z,41.08
2018-03-01T08:46:06.001Z,41.90
2018-03-01T08:48:35.726Z,32.28
2018-03-01T08:51:05.475Z,34.33
2018-03-01T08:53:35.222Z,44.40
2018-03-01T08:56:04.944Z,32.80
2018-03-01T08:58:34.359Z,36.20
2018-03-01T09:01:04.092Z,38.13
2018-03-01T09:03:33.820Z,33.88
2018-03-01T09:06:03.557Z,38.70
2018-03-01T09:08:32.252Z,41.97
2018-03-01T09:11:01.383Z,40.65
2018-03-01T09:13:30.873Z,37.75
2018-03-01T09:16:00.379Z,38.65
2018-03-01T09:18:29.938Z,36.50
2018-03-01T09:20:58.687Z,37.85
2018-03-01T09:23:28.215Z,35.88
2018-03-01T09:25:56.927Z,33.97
2018-03-01T09:28:25.659Z,38.72
2018-03-01T09:30:54.778Z,38.78
2018-03-01T09:33:23.717Z,35.03
2018-03-01T09:35:52.463Z,36.28
2018-03-01T09:38:21.193Z,34.03
2018-03-01T09:40:49.559Z,36.17
2018-03-01T09:43:18.318Z,36.55
2018-03-01T09:45:47.057Z,34.50
2018-03-01T09:48:15.784Z,39.97
2018-03-01T09:50:45.355Z,40.92
2018-03-01T09:53:14.087Z,33.95
2018-03-01T09:55:42.823Z,35.65
2018-03-01T09:58:11.370Z,34.08
2018-03-01T10:00:40.102Z,31.52
2018-03-01T10:03:09.822Z,38.33
2018-03-01T10:05:38.551Z,43.15
2018-03-01T10:08:07.263Z,33.50
2018-03-01T10:10:36.087Z,45.85
2018-03-01T10:13:04.482Z,38.95
2018-03-01T10:15:33.304Z,34.08
2018-03-01T10:18:02.095Z,40.38
2018-03-01T10:20:30.954Z,42.13
2018-03-01T10:22:59.683Z,46.37
2018-03-01T10:25:28.398Z,38.58
2018-03-01T10:27:58.177Z,36.65
2018-03-01T10:30:28.058Z,37.13
2018-03-01T10:32:57.783Z,36.70
2018-03-01T10:35:26.891Z,36.78
2018-03-01T10:37:55.630Z,31.15
2018-03-01T10:40:24.343Z,38.72
2018-03-01T10:42:53.893Z,41.42
2018-03-01T10:45:22.781Z,35.97
2018-03-01T10:47:51.511Z,39.35
2018-03-01T10:50:20.243Z,37.88
2018-03-01T10:52:49.974Z,34.20
2018-03-01T10:55:20.147Z,38.70
2018-03-01T10:57:49.878Z,34.42
2018-03-01T11:00:25.290Z,38.13
2018-03-01T11:02:55.035Z,37.38
2018-03-01T11:05:24.781Z,39.45
2018-03-01T11:07:54.534Z,34.97
2018-03-01T11:10:24.262Z,39.00
2018-03-01T11:12:54.003Z,52.92
2018-03-01T11:15:23.734Z,37.25
2018-03-01T11:17:53.565Z,35.42
2018-03-01T11:20:23.119Z,38.30
2018-03-01T11:22:52.650Z,36.88
2018-03-01T11:25:21.768Z,36.45
2018-03-01T11:27:50.475Z,40.83
2018-03-01T11:30:19.207Z,36.40
2018-03-01T11:32:48.699Z,34.58
2018-03-01T11:35:18.914Z,42.97
2018-03-01T11:37:48.714Z,37.10
2018-03-01T11:40:18.534Z,35.08
2018-03-01T11:42:47.764Z,36.20
2018-03-01T11:45:17.234Z,40.20
2018-03-01T11:47:45.963Z,38.35
2018-03-01T11:50:15.774Z,41.92
2018-03-01T11:52:45.505Z,38.40
2018-03-01T11:55:15.247Z,38.00
2018-03-01T11:57:44.966Z,43.45
2018-03-01T12:00:14.710Z,40.08
2018-03-01T12:02:44.430Z,38.28
2018-03-01T12:05:14.150Z,33.60
2018-03-01T12:07:43.877Z,36.90
2018-03-01T12:10:13.633Z,35.80
2018-03-01T12:12:43.342Z,38.47
2018-03-01T12:15:13.194Z,36.35
2018-03-01T12:17:42.919Z,42.97
2018-03-01T12:20:12.647Z,38.55
2018-03-01T12:22:42.494Z,40.17
2018-03-01T12:25:12.253Z,39.15
2018-03-01T12:27:40.955Z,35.38
2018-03-01T12:30:10.759Z,38.75
2018-03-01T12:32:40.480Z,41.03
2018-03-01T12:35:10.214Z,40.35
2018-03-01T12:37:39.938Z,36.50
2018-03-01T12:40:09.679Z,33.45
2018-03-01T12:42:39.595Z,43.53
2018-03-01T12:45:09.492Z,34.80
2018-03-01T12:47:39.212Z,38.70
2018-03-01T12:50:09.003Z,34.50
2018-03-01T12:52:37.527Z,38.20
2018-03-01T12:55:06.834Z,36.25
2018-03-01T12:57:35.414Z,38.85
2018-03-01T13:00:03.600Z,38.63
2018-03-01T13:02:32.150Z,36.63
2018-03-01T13:05:02.372Z,34.75
2018-03-01T13:07:30.910Z,38.55
2018-03-01T13:09:59.426Z,50.38
2018-03-01T13:12:28.004Z,38.72
2018-03-01T13:14:56.714Z,38.05
2018-03-01T13:17:26.039Z,38.08
2018-03-01T13:19:55.318Z,35.45
2018-03-01T13:22:25.455Z,33.50
2018-03-01T13:24:54.744Z,36.92
2018-03-01T13:27:23.309Z,36.65
2018-03-01T13:29:52.016Z,41.72
2018-03-01T13:32:27.187Z,36.78
2018-03-01T13:34:55.725Z,38.38
2018-03-01T13:37:24.241Z,34.58
2018-03-01T13:39:52.788Z,37.10
2018-03-01T13:42:27.894Z,37.85
2018-03-01T13:44:57.429Z,31.40
2018-03-01T13:47:43.674Z,35.05
2018-03-01T13:50:13.210Z,35.03
2018-03-01T13:52:42.945Z,34.60
2018-03-01T13:55:12.484Z,38.47
2018-03-01T13:57:42.213Z,39.83
2018-03-01T14:00:11.787Z,42.10
2018-03-01T14:02:41.328Z,38.65
2018-03-01T14:05:10.934Z,37.88
2018-03-01T14:07:42.414Z,34.78
2018-03-01T14:10:11.967Z,40.88
2018-03-01T14:12:58.350Z,33.63
2018-03-01T14:15:27.893Z,40.85
2018-03-01T14:17:57.432Z,41.00
2018-03-01T14:20:30.841Z,35.17
2018-03-01T14:23:15.249Z,39.13
2018-03-01T14:25:44.807Z,35.75
2018-03-01T14:28:15.130Z,37.67
2018-03-01T14:30:44.674Z,33.60
2018-03-01T14:33:14.382Z,46.40
2018-03-01T14:35:44.128Z,39.30
2018-03-01T14:38:13.860Z,42.10
2018-03-01T14:40:43.579Z,40.88
2018-03-01T14:43:13.356Z,39.22
2018-03-01T14:45:43.087Z,41.80
2018-03-01T14:48:12.855Z,33.78
2018-03-01T14:50:42.595Z,39.60
2018-03-01T14:53:12.298Z,44.45
2018-03-01T14:55:42.204Z,38.95
2018-03-01T14:58:11.942Z,39.30
2018-03-01T15:00:41.668Z,38.30
2018-03-01T15:03:11.412Z,35.42
2018-03-01T15:05:41.158Z,36.20
2018-03-01T15:08:10.981Z,35.47
2018-03-01T15:10:40.897Z,40.53
2018-03-01T15:13:10.631Z,38.85
2018-03-01T15:15:40.372Z,40.12
2018-03-01T15:18:10.129Z,35.92
2018-03-01T15:20:39.868Z,41.42
2018-03-01T15:23:09.578Z,37.60
2018-03-01T15:25:39.301Z,40.25
2018-03-01T15:28:09.286Z,34.72
2018-03-01T15:30:39.035Z,42.13
2018-03-01T15:33:08.820Z,35.90
2018-03-01T15:35:38.560Z,36.30
2018-03-01T15:38:08.283Z,42.30
2018-03-01T15:40:38.024Z,39.58
2018-03-01T15:43:07.730Z,40.42
2018-03-01T15:45:37.476Z,38.13
2018-03-01T15:48:07.216Z,40.67
2018-03-01T15:50:37.208Z,41.13
2018-03-01T15:53:06.933Z,48.25
2018-03-01T15:55:36.651Z,41.63
2018-03-01T15:58:06.490Z,41.33
2018-03-01T16:00:36.210Z,38.13
2018-03-01T16:03:05.960Z,40.95
2018-03-01T16:05:35.715Z,37.47
2018-03-01T16:08:05.659Z,38.92
2018-03-01T16:10:35.405Z,37.85
2018-03-01T16:13:05.174Z,37.78
2018-03-01T16:15:34.926Z,37.42
2018-03-01T16:18:04.456Z,42.53
2018-03-01T16:20:34.222Z,37.50
2018-03-01T16:23:04.060Z,40.20
2018-03-01T16:25:33.796Z,41.22
2018-03-01T16:28:03.523Z,37.30
2018-03-01T16:30:33.507Z,41.55
2018-03-01T16:33:03.250Z,44.92
2018-03-01T16:35:32.989Z,34.67
2018-03-01T16:38:02.743Z,39.15
2018-03-01T16:40:32.461Z,36.80
2018-03-01T16:43:02.186Z,46.58
2018-03-01T16:45:31.983Z,40.47
2018-03-01T16:48:01.856Z,43.97
2018-03-01T16:50:31.402Z,42.83
2018-03-01T16:53:01.129Z,37.40
2018-03-01T16:55:30.861Z,37.90
2018-03-01T16:58:00.583Z,41.13
2018-03-01T17:00:30.350Z,36.80
2018-03-01T17:03:00.206Z,37.03
2018-03-01T17:05:30.095Z,44.70
2018-03-01T17:07:59.847Z,44.42
2018-03-01T17:10:29.588Z,46.55
2018-03-01T17:12:59.307Z,41.97
2018-03-01T17:15:29.044Z,41.65
2018-03-01T17:17:58.791Z,36.88
2018-03-01T17:20:28.524Z,36.75
2018-03-01T17:22:58.254Z,40.65
2018-03-01T17:25:28.055Z,36.55
2018-03-01T17:27:57.813Z,35.95
2018-03-01T17:30:27.578Z,37.65
2018-03-01T17:32:57.314Z,36.25
2018-03-01T17:35:27.079Z,39.95
2018-03-01T17:37:56.810Z,38.20
2018-03-01T17:40:26.550Z,40.72
2018-03-01T17:42:56.351Z,37.83
2018-03-01T17:45:26.095Z,38.53
2018-03-01T17:47:55.900Z,39.50
2018-03-01T17:50:25.697Z,37.60
2018-03-01T17:52:55.458Z,38.08
2018-03-01T17:55:25.274Z,34.05
2018-03-01T17:57:55.045Z,37.70
2018-03-01T18:00:24.787Z,36.13
2018-03-01T18:02:54.530Z,51.22
2018-03-01T18:05:24.290Z,47.55
2018-03-01T18:07:54.028Z,41.78
2018-03-01T18:10:23.803Z,35.20
2018-03-01T18:12:53.560Z,32.08
2018-03-01T18:15:23.287Z,39.20
2018-03-01T18:17:53.194Z,40.58
2018-03-01T18:20:22.979Z,39.83
2018-03-01T18:22:52.743Z,37.55
2018-03-01T18:25:22.500Z,39.40
2018-03-01T18:27:52.267Z,39.60
2018-03-01T18:30:22.002Z,38.60
2018-03-01T18:32:51.765Z,41.53
2018-03-01T18:35:21.557Z,43.28
2018-03-01T18:37:51.309Z,40.10
2018-03-01T18:40:21.052Z,43.72
2018-03-01T18:42:50.811Z,41.08
2018-03-01T18:45:20.570Z,36.33
2018-03-01T18:47:50.429Z,43.75
2018-03-01T18:50:20.183Z,38.42
2018-03-01T18:52:49.939Z,40.10
2018-03-01T18:55:19.670Z,41.10
2018-03-01T18:57:49.445Z,37.67
2018-03-01T19:00:19.329Z,43.47
2018-03-01T19:02:49.147Z,41.78
2018-03-01T19:05:18.880Z,45.50
2018-03-01T19:07:48.642Z,37.58
2018-03-01T19:10:18.376Z,36.05
2018-03-01T19:12:48.181Z,38.17
2018-03-01T19:15:17.915Z,36.10
2018-03-01T19:17:47.650Z,45.20
2018-03-01T19:20:17.381Z,49.53
2018-03-01T19:22:47.130Z,44.88
2018-03-01T19:25:16.849Z,38.28
2018-03-01T19:27:46.602Z,38.65
2018-03-01T19:30:16.329Z,44.58
2018-03-01T19:32:46.075Z,40.22
2018-03-01T19:35:15.810Z,43.33
2018-03-01T19:37:45.535Z,45.00
2018-03-01T19:40:15.287Z,39.53
2018-03-01T19:42:44.990Z,42.35
2018-03-01T19:45:14.722Z,46.15
2018-03-01T19:47:44.435Z,42.42
2018-03-01T19:50:14.168Z,41.78
2018-03-01T19:52:43.906Z,38.08
2018-03-01T19:55:13.662Z,43.55
2018-03-01T19:57:43.402Z,37.97
2018-03-01T20:00:13.135Z,42.08
2018-03-01T20:02:42.873Z,41.33
2018-03-01T20:05:12.603Z,43.08
2018-03-01T20:07:42.371Z,35.08
2018-03-01T20:10:12.074Z,42.62
2018-03-01T20:12:41.812Z,40.88
2018-03-01T20:15:11.519Z,46.30
2018-03-01T20:17:41.274Z,48.40
2018-03-01T20:20:10.993Z,53.42
2018-03-01T20:22:40.727Z,41.80
2018-03-01T20:25:10.468Z,45.25
2018-03-01T20:27:40.207Z,41.70
2018-03-01T20:30:09.971Z,45.67
2018-03-01T20:32:39.754Z,41.90
2018-03-01T20:35:09.490Z,40.72
2018-03-01T20:37:39.277Z,64.75
2018-03-01T20:40:09.052Z,51.67
2018-03-01T20:42:38.782Z,40.40
2018-03-01T20:45:08.510Z,42.38
2018-03-01T20:47:38.242Z,50.25
2018-03-01T20:50:07.954Z,47.72
2018-03-01T20:52:37.699Z,40.72
2018-03-01T20:55:07.414Z,44.50
2018-03-01T20:57:37.154Z,44.97
2018-03-01T21:00:06.857Z,39.72
2018-03-01T21:02:36.585Z,43.00
2018-03-01T21:05:06.417Z,40.53
2018-03-01T21:07:36.159Z,43.38
2018-03-01T21:10:05.890Z,46.33
2018-03-01T21:12:35.602Z,38.92
2018-03-01T21:15:05.331Z,43.78
2018-03-01T21:17:35.046Z,46.83
2018-03-01T21:20:04.467Z,43.08
2018-03-01T21:22:34.213Z,46.17
2018-03-01T21:25:03.937Z,46.78
2018-03-01T21:27:33.666Z,48.30
2018-03-01T21:30:03.372Z,44.72
2018-03-01T21:32:33.097Z,45.53
2018-03-01T21:35:02.819Z,46.03
2018-03-01T21:37:32.571Z,45.90
2018-03-01T21:40:02.287Z,44.63
2018-03-01T21:42:33.049Z,44.50
2018-03-01T21:45:02.803Z,46.33
2018-03-01T21:47:32.540Z,45.70
2018-03-01T21:50:02.295Z,58.22
2018-03-01T21:52:32.037Z,47.13
2018-03-01T21:55:01.769Z,46.17
2018-03-01T21:57:31.586Z,41.42
2018-03-01T22:00:01.314Z,48.78
2018-03-01T22:02:31.047Z,51.53
2018-03-01T22:05:00.832Z,50.35
2018-03-01T22:07:30.592Z,55.72
2018-03-01T22:10:00.070Z,47.40
2018-03-01T22:12:28.811Z,44.22
2018-03-01T22:14:57.527Z,49.80
2018-03-01T22:17:26.718Z,51.70
2018-03-01T22:19:55.422Z,46.78
2018-03-01T22:22:24.560Z,50.25
2018-03-01T22:24:53.683Z,52.10
2018-03-01T22:27:22.815Z,47.55
2018-03-01T22:29:51.536Z,46.70
2018-03-01T22:32:21.288Z,43.45
2018-03-01T22:34:50.943Z,45.60
2018-03-01T22:37:20.422Z,55.03
2018-03-01T22:39:49.534Z,50.30
2018-03-01T22:42:19.261Z,49.13
2018-03-01T22:44:48.420Z,55.65
2018-03-01T22:47:17.560Z,46.78
2018-03-01T22:49:46.695Z,47.42
2018-03-01T22:52:15.821Z,50.90
2018-03-01T22:54:44.523Z,46.60
2018-03-01T22:57:13.641Z,47.00
2018-03-01T22:59:42.754Z,49.63
2018-03-01T23:02:11.483Z,55.25
2018-03-01T23:04:40.699Z,52.58
2018-03-01T23:07:09.444Z,54.47
2018-03-01T23:09:38.610Z,52.05
2018-03-01T23:12:07.744Z,51.50
2018-03-01T23:14:36.455Z,50.67
2018-03-01T23:17:05.583Z,47.28
2018-03-01T23:19:34.691Z,51.55
2018-03-01T23:22:04.181Z,51.03
2018-03-01T23:24:33.670Z,52.65
2018-03-01T23:27:02.383Z,54.42
2018-03-01T23:29:31.496Z,52.40
2018-03-01T23:32:00.800Z,53.05
2018-03-01T23:34:30.287Z,51.20
2018-03-01T23:37:00.499Z,52.15
2018-03-01T23:39:29.677Z,48.55
2018-03-01T23:41:58.775Z,49.78
2018-03-01T23:44:27.171Z,59.00
2018-03-01T23:46:57.383Z,53.17
2018-03-01T23:49:26.579Z,59.88
2018-03-01T23:51:55.679Z,58.55
2018-03-01T23:54:24.801Z,61.67
2018-03-01T23:56:54.538Z,63.53
2018-03-01T23:59:24.273Z,61.50
